Time;durP1;ratioP1;P1;durP2;ratioP2;P2;SDS_P1;SDS_P2;PMS_P1;PMS_P2;Temp;Humidity;BMP_temperature;BMP_pressure;BME280_temperature;BME280_humidity;BME280_pressure;Samples;Min_cycle;Max_cycle;Signal;HPM_P1;HPM_P2
2022/10/20 00:00:53;;;;;;;9.60;6.25;;;7.80;99.90;;;;;;5050724;28;20044;-62
2022/10/20 00:03:19;;;;;;;14.27;6.20;;;7.70;99.90;;;;;;5051242;28;20045;-62
2022/10/20 00:05:45;;;;;;;9.60;5.90;;;7.70;99.90;;;;;;5051898;28;20087;-62
2022/10/20 00:08:10;;;;;;;11.35;6.57;;;7.70;99.90;;;;;;5050827;28;20375;-62
2022/10/20 00:10:36;;;;;;;14.48;6.45;;;7.70;99.90;;;;;;5049804;28;20048;-62
2022/10/20 00:13:02;;;;;;;12.32;6.38;;;7.70;99.90;;;;;;5050641;28;20037;-62
2022/10/20 00:15:27;;;;;;;10.93;6.25;;;7.60;99.90;;;;;;5050864;28;20081;-62
2022/10/20 00:17:53;;;;;;;12.18;5.75;;;7.60;99.90;;;;;;5051096;28;20482;-62
2022/10/20 00:20:19;;;;;;;15.60;6.10;;;7.60;99.90;;;;;;5051858;28;20091;-62
2022/10/20 00:22:45;;;;;;;14.07;6.10;;;7.60;99.90;;;;;;5051616;28;20044;-62
2022/10/20 00:25:10;;;;;;;11.13;5.47;;;7.60;99.90;;;;;;5050146;28;20044;-62
2022/10/20 00:27:36;;;;;;;10.80;5.63;;;7.60;99.90;;;;;;5050476;28;20552;-62
2022/10/20 00:30:02;;;;;;;11.30;6.07;;;7.60;99.90;;;;;;5049686;28;20047;-62
2022/10/20 00:32:29;;;;;;;11.30;5.22;;;7.50;99.90;;;;;;5050525;28;20072;-62
2022/10/20 00:34:55;;;;;;;11.10;6.07;;;7.50;99.90;;;;;;5050447;28;20077;-62
2022/10/20 00:37:21;;;;;;;11.57;5.88;;;7.50;99.90;;;;;;5049610;28;20033;-62
2022/10/20 00:39:46;;;;;;;11.70;5.97;;;7.40;99.90;;;;;;5050218;28;20044;-62
2022/10/20 00:42:17;;;;;;;11.60;5.32;;;7.40;99.90;;;;;;5050643;28;20045;-62
2022/10/20 00:44:53;;;;;;;12.48;6.30;;;7.40;99.90;;;;;;5049922;28;20037;-62
2022/10/20 00:47:21;;;;;;;12.23;6.38;;;7.40;99.90;;;;;;5050440;28;20508;-62
2022/10/20 00:49:48;;;;;;;9.88;5.95;;;7.40;99.90;;;;;;5050183;28;20120;-62
2022/10/20 00:52:17;;;;;;;9.43;5.10;;;7.30;99.90;;;;;;5049226;28;20483;-62
2022/10/20 00:54:43;;;;;;;14.40;6.05;;;7.30;99.90;;;;;;5050783;28;20056;-62
2022/10/20 00:57:09;;;;;;;9.25;5.28;;;7.30;99.90;;;;;;5055129;28;20041;-62
2022/10/20 00:59:36;;;;;;;12.93;5.65;;;7.30;99.90;;;;;;5054629;28;20047;-62
2022/10/20 01:02:03;;;;;;;10.52;5.68;;;7.30;99.90;;;;;;5055273;28;20037;-62
2022/10/20 01:04:30;;;;;;;11.82;6.15;;;7.30;99.90;;;;;;5055216;28;20489;-62
2022/10/20 01:06:57;;;;;;;12.35;6.47;;;7.30;99.90;;;;;;5054073;28;20037;-62
2022/10/20 01:09:22;;;;;;;11.25;6.25;;;7.30;99.90;;;;;;5053872;28;20041;-62
2022/10/20 01:12:03;;;;;;;13.85;6.18;;;7.20;99.90;;;;;;5055125;28;20036;-62
2022/10/20 01:14:41;;;;;;;11.40;5.55;;;7.20;99.90;;;;;;5055036;28;20048;-62
2022/10/20 01:17:09;;;;;;;13.15;5.70;;;7.20;99.90;;;;;;5054834;28;20436;-62
2022/10/20 01:19:57;;;;;;;11.80;6.00;;;7.20;99.90;;;;;;5054296;28;20033;-62
2022/10/20 01:22:52;;;;;;;13.20;8.27;;;7.20;99.90;;;;;;5053561;28;20080;-62
2022/10/20 01:25:33;;;;;;;12.65;6.30;;;7.20;99.90;;;;;;5053553;28;20056;-62
2022/10/20 01:28:06;;;;;;;10.07;6.03;;;7.10;99.90;;;;;;5052892;28;20045;-62
2022/10/20 01:30:35;;;;;;;11.77;6.10;;;7.10;99.90;;;;;;5053445;28;20045;-62
2022/10/20 01:33:28;;;;;;;9.70;6.00;;;7.10;99.90;;;;;;5054730;28;20045;-62
2022/10/20 01:36:04;;;;;;;12.10;5.80;;;7.10;99.90;;;;;;5053210;28;20068;-62
2022/10/20 01:38:38;;;;;;;12.40;6.57;;;7.10;99.90;;;;;;5054823;28;20052;-62
2022/10/20 01:41:16;;;;;;;9.77;5.77;;;7.10;99.90;;;;;;5053827;28;20096;-62
2022/10/20 01:43:44;;;;;;;9.18;5.50;;;7.10;99.90;;;;;;5054826;28;20163;-62
2022/10/20 01:46:11;;;;;;;12.05;6.00;;;7.10;99.90;;;;;;5054640;28;20052;-62
2022/10/20 01:48:39;;;;;;;10.90;6.05;;;7.00;99.90;;;;;;5052871;28;20091;-62
2022/10/20 01:51:05;;;;;;;14.05;5.78;;;7.00;99.90;;;;;;5054377;28;20051;-62
2022/10/20 01:53:31;;;;;;;12.85;6.38;;;7.00;99.90;;;;;;5053373;28;20051;-62
2022/10/20 01:55:59;;;;;;;10.77;5.72;;;7.00;99.90;;;;;;5052185;28;20041;-62
2022/10/20 01:58:28;;;;;;;14.73;6.88;;;7.00;99.90;;;;;;5054221;28;20044;-62
2022/10/20 02:00:58;;;;;;;13.95;6.25;;;7.00;99.90;;;;;;5052884;28;20496;-62
2022/10/20 02:03:26;;;;;;;9.55;6.00;;;7.00;99.90;;;;;;5052600;28;20533;-62
2022/10/20 02:06:18;;;;;;;17.60;6.68;;;6.90;99.90;;;;;;5052947;28;20077;-62
2022/10/20 02:08:51;;;;;;;10.57;6.45;;;6.90;99.90;;;;;;5052392;28;20045;-62
2022/10/20 02:11:21;;;;;;;10.60;5.88;;;6.90;99.90;;;;;;5052983;28;20452;-62
2022/10/20 02:13:50;;;;;;;11.70;5.57;;;6.80;99.90;;;;;;5054115;28;20386;-62
2022/10/20 02:16:22;;;;;;;14.35;6.30;;;6.90;99.90;;;;;;5051871;28;20059;-62
2022/10/20 02:18:48;;;;;;;10.52;5.72;;;6.90;99.90;;;;;;5053742;28;20393;-62
2022/10/20 02:21:15;;;;;;;10.07;6.63;;;6.80;99.90;;;;;;5053752;28;20116;-61
2022/10/20 02:23:44;;;;;;;17.63;5.93;;;6.80;99.90;;;;;;5051919;28;20033;-62
2022/10/20 02:26:13;;;;;;;11.93;6.28;;;6.80;99.90;;;;;;5052576;28;20077;-62
2022/10/20 02:28:43;;;;;;;14.73;6.32;;;6.80;99.90;;;;;;5053986;28;20076;-62
2022/10/20 02:31:09;;;;;;;12.63;5.82;;;6.80;99.90;;;;;;5051653;28;20083;-62
2022/10/20 02:33:37;;;;;;;11.20;5.97;;;6.80;99.90;;;;;;5053474;28;20497;-62
2022/10/20 02:36:04;;;;;;;10.27;6.15;;;6.80;99.90;;;;;;5052592;28;20116;-62
2022/10/20 02:38:30;;;;;;;13.55;6.60;;;6.80;99.90;;;;;;5052596;28;20048;-62
2022/10/20 02:40:56;;;;;;;10.90;5.97;;;6.70;99.90;;;;;;5052289;28;20048;-62
2022/10/20 02:43:22;;;;;;;9.77;5.55;;;6.70;99.90;;;;;;5052353;28;20055;-62
2022/10/20 02:45:47;;;;;;;13.63;7.15;;;6.70;99.90;;;;;;5052602;28;20052;-62
2022/10/20 02:48:13;;;;;;;12.18;6.80;;;6.70;99.90;;;;;;5053223;28;20029;-62
2022/10/20 02:50:39;;;;;;;9.38;5.70;;;6.70;99.90;;;;;;5051607;28;20478;-62
2022/10/20 02:53:05;;;;;;;11.18;5.85;;;6.70;99.90;;;;;;5053152;28;20529;-62
2022/10/20 02:55:30;;;;;;;9.98;5.63;;;6.70;99.90;;;;;;5052131;28;20390;-62
2022/10/20 02:57:56;;;;;;;10.07;5.20;;;6.70;99.90;;;;;;5051260;28;20478;-62
2022/10/20 03:00:22;;;;;;;11.65;5.85;;;6.70;99.90;;;;;;5051691;28;20596;-62
2022/10/20 03:02:48;;;;;;;13.50;6.10;;;6.70;99.90;;;;;;5052933;28;20044;-62
2022/10/20 03:05:15;;;;;;;10.60;5.47;;;6.70;99.90;;;;;;5051096;28;20041;-62
2022/10/20 03:07:40;;;;;;;11.25;5.88;;;6.70;99.90;;;;;;5052206;28;20045;-62
2022/10/20 03:10:07;;;;;;;11.65;5.95;;;6.60;99.90;;;;;;5051684;28;20047;-62
2022/10/20 03:12:33;;;;;;;11.82;7.82;;;6.70;99.90;;;;;;5050845;28;20095;-62
2022/10/20 03:14:59;;;;;;;7.97;5.25;;;6.70;99.90;;;;;;5051514;28;20041;-62
2022/10/20 03:17:24;;;;;;;10.52;5.80;;;6.70;99.90;;;;;;5051290;28;20258;-62
2022/10/20 03:19:50;;;;;;;10.55;5.97;;;6.70;99.90;;;;;;5051407;28;20037;-62
2022/10/20 03:22:15;;;;;;;14.05;6.28;;;6.70;99.90;;;;;;5052320;28;20095;-62
2022/10/20 03:24:42;;;;;;;10.75;5.38;;;6.70;99.90;;;;;;5053031;28;20124;-62
2022/10/20 03:27:07;;;;;;;10.73;5.90;;;6.70;99.90;;;;;;5050367;28;20393;-62
2022/10/20 03:29:33;;;;;;;11.32;6.90;;;6.70;99.90;;;;;;5052657;28;20049;-62
2022/10/20 03:31:58;;;;;;;13.15;6.18;;;6.70;99.90;;;;;;5051399;28;20040;-62
2022/10/20 03:34:24;;;;;;;10.02;6.45;;;6.70;99.90;;;;;;5051610;28;20500;-62
2022/10/20 03:36:50;;;;;;;10.90;5.75;;;6.60;99.90;;;;;;5034576;28;20045;-62
2022/10/20 03:39:16;;;;;;;13.65;6.30;;;6.60;99.90;;;;;;5052582;28;20087;-62
2022/10/20 03:41:41;;;;;;;10.70;5.75;;;6.60;99.90;;;;;;5051768;28;20371;-62
2022/10/20 03:44:09;;;;;;;11.05;6.72;;;6.60;99.90;;;;;;5051117;28;20073;-62
2022/10/20 03:46:34;;;;;;;9.15;5.63;;;6.60;99.90;;;;;;5052187;28;20439;-62
2022/10/20 03:49:00;;;;;;;11.73;6.10;;;6.60;99.90;;;;;;5051368;28;20112;-62
2022/10/20 03:51:26;;;;;;;11.02;5.72;;;6.60;99.90;;;;;;5051998;28;20080;-62
2022/10/20 03:53:51;;;;;;;13.30;6.13;;;6.60;99.90;;;;;;5051506;28;20044;-62
2022/10/20 03:56:19;;;;;;;12.35;6.90;;;6.60;99.90;;;;;;5052194;28;20116;-62
2022/10/20 03:58:45;;;;;;;11.20;6.57;;;6.60;99.90;;;;;;5052105;28;20037;-62
2022/10/20 04:01:20;;;;;;;11.73;6.47;;;6.60;99.90;;;;;;5051464;28;20053;-62
2022/10/20 04:03:46;;;;;;;11.75;7.03;;;6.60;99.90;;;;;;5051995;28;20072;-62
2022/10/20 04:06:12;;;;;;;13.18;6.97;;;6.60;99.90;;;;;;5050830;28;20579;-62
2022/10/20 04:08:38;;;;;;;12.48;7.13;;;6.60;99.90;;;;;;5051669;28;20037;-62
2022/10/20 04:11:04;;;;;;;11.52;6.60;;;6.60;99.90;;;;;;5050891;28;20385;-62
2022/10/20 04:13:29;;;;;;;12.93;6.47;;;6.60;99.90;;;;;;5051866;28;20546;-62
2022/10/20 04:15:55;;;;;;;11.20;6.70;;;6.60;99.90;;;;;;5033150;28;20052;-62
2022/10/20 04:18:21;;;;;;;13.55;6.80;;;6.60;99.90;;;;;;5051825;28;20045;-62
2022/10/20 04:20:47;;;;;;;11.98;6.85;;;6.70;99.90;;;;;;5051760;28;20044;-62
2022/10/20 04:23:13;;;;;;;12.68;6.43;;;6.70;99.90;;;;;;5049736;28;20083;-62
2022/10/20 04:25:46;;;;;;;13.00;6.88;;;6.70;99.90;;;;;;5050591;28;20041;-62
2022/10/20 04:28:13;;;;;;;11.57;6.60;;;6.70;99.90;;;;;;5050559;28;20045;-62
2022/10/20 04:30:39;;;;;;;10.32;6.07;;;6.70;99.90;;;;;;5051199;28;20091;-62
2022/10/20 04:33:05;;;;;;;10.65;6.55;;;6.70;99.90;;;;;;5055504;28;20106;-62
2022/10/20 04:35:31;;;;;;;11.73;6.38;;;6.70;99.90;;;;;;5056017;28;20605;-62
2022/10/20 04:37:57;;;;;;;9.77;6.75;;;6.70;99.90;;;;;;5053662;28;20453;-62
2022/10/20 04:40:22;;;;;;;11.05;6.30;;;6.70;99.90;;;;;;5054581;28;20105;-62
2022/10/20 04:42:48;;;;;;;11.60;6.93;;;6.70;99.90;;;;;;5055806;28;20041;-62
2022/10/20 04:45:13;;;;;;;10.02;6.72;;;6.70;99.90;;;;;;5053448;28;20040;-62
2022/10/20 04:47:39;;;;;;;10.88;6.88;;;6.70;99.90;;;;;;5055801;28;20043;-62
2022/10/20 04:50:05;;;;;;;11.40;6.97;;;6.70;99.90;;;;;;5053843;28;20429;-62
2022/10/20 04:52:31;;;;;;;17.27;9.65;;;6.70;99.90;;;;;;5054493;28;20056;-62
2022/10/20 04:54:57;;;;;;;16.98;11.23;;;6.70;99.90;;;;;;5055494;28;20037;-62
2022/10/20 04:57:22;;;;;;;12.30;8.63;;;6.60;99.90;;;;;;5053361;28;20051;-62
2022/10/20 04:59:48;;;;;;;12.43;8.05;;;6.60;99.90;;;;;;5055208;28;20117;-62
2022/10/20 05:02:14;;;;;;;13.65;8.98;;;6.70;99.90;;;;;;5053894;28;20401;-62
2022/10/20 05:04:39;;;;;;;13.15;8.48;;;6.60;99.90;;;;;;5054906;28;20072;-62
2022/10/20 05:07:05;;;;;;;12.63;7.57;;;6.60;99.90;;;;;;5054295;28;20072;-62
2022/10/20 05:09:31;;;;;;;13.07;8.73;;;6.60;99.90;;;;;;5053870;28;20045;-62
2022/10/20 05:11:58;;;;;;;15.00;9.18;;;6.60;99.90;;;;;;5053101;28;20036;-62
2022/10/20 05:14:23;;;;;;;15.90;10.15;;;6.60;99.90;;;;;;5054935;28;20509;-62
2022/10/20 05:16:49;;;;;;;15.90;9.20;;;6.60;99.90;;;;;;5054953;28;20068;-62
2022/10/20 05:19:15;;;;;;;17.95;11.25;;;6.60;99.90;;;;;;5054423;28;20063;-62
2022/10/20 05:21:41;;;;;;;12.82;8.07;;;6.60;99.90;;;;;;5055164;28;20489;-62
2022/10/20 05:24:07;;;;;;;15.30;9.75;;;6.60;99.90;;;;;;5053618;28;20044;-62
2022/10/20 05:26:36;;;;;;;15.45;8.93;;;6.50;99.90;;;;;;5052682;28;20128;-62
2022/10/20 05:29:03;;;;;;;16.20;9.32;;;6.50;99.90;;;;;;5054824;28;20041;-62
2022/10/20 05:31:29;;;;;;;12.65;8.52;;;6.50;99.90;;;;;;5053493;28;20086;-62
2022/10/20 05:33:56;;;;;;;18.48;9.82;;;6.50;99.90;;;;;;5054061;28;20397;-62
2022/10/20 05:36:26;;;;;;;15.07;9.30;;;6.50;99.90;;;;;;5053600;28;20045;-62
2022/10/20 05:38:53;;;;;;;13.88;9.27;;;6.50;99.90;;;;;;5053504;28;20036;-62
2022/10/20 05:41:24;;;;;;;18.13;12.20;;;6.50;99.90;;;;;;5051939;28;20049;-62
2022/10/20 05:43:52;;;;;;;22.63;14.73;;;6.50;99.90;;;;;;5054433;28;20068;-63
2022/10/20 05:46:19;;;;;;;24.33;13.98;;;6.50;99.90;;;;;;5053110;28;20044;-62
2022/10/20 05:48:45;;;;;;;19.45;12.13;;;6.50;99.90;;;;;;5054184;28;20072;-62
2022/10/20 05:51:14;;;;;;;17.92;11.18;;;6.50;99.90;;;;;;5054908;28;20386;-62
2022/10/20 05:53:39;;;;;;;17.27;11.18;;;6.50;99.90;;;;;;5053814;28;20040;-62
2022/10/20 05:56:07;;;;;;;21.60;15.18;;;6.50;99.90;;;;;;5054186;28;20047;-62
2022/10/20 05:58:33;;;;;;;23.95;18.20;;;6.50;99.90;;;;;;5054152;28;20501;-62
2022/10/20 06:01:05;;;;;;;22.63;14.27;;;6.50;99.90;;;;;;5053473;28;20037;-62
2022/10/20 06:03:31;;;;;;;17.98;12.20;;;6.50;99.90;;;;;;5052871;28;20053;-62
2022/10/20 06:05:58;;;;;;;21.58;14.40;;;6.50;99.90;;;;;;5053157;28;20045;-62
2022/10/20 06:08:24;;;;;;;17.67;12.00;;;6.50;99.90;;;;;;5053243;28;20044;-62
2022/10/20 06:10:50;;;;;;;19.05;12.48;;;6.50;99.90;;;;;;5053819;28;20044;-62
2022/10/20 06:13:15;;;;;;;19.45;12.55;;;6.50;99.90;;;;;;5054153;28;20081;-62
2022/10/20 06:15:41;;;;;;;16.15;10.43;;;6.50;99.90;;;;;;5052217;28;20081;-62
2022/10/20 06:18:06;;;;;;;15.82;10.80;;;6.50;99.90;;;;;;5053887;28;20048;-62
2022/10/20 06:20:32;;;;;;;17.48;11.52;;;6.50;99.90;;;;;;5053814;28;20048;-62
2022/10/20 06:22:58;;;;;;;16.05;11.02;;;6.60;99.90;;;;;;5051885;28;20383;-62
2022/10/20 06:25:23;;;;;;;15.95;10.63;;;6.60;99.90;;;;;;5052485;28;20402;-62
2022/10/20 06:27:49;;;;;;;18.02;11.93;;;6.60;99.90;;;;;;5052347;28;20063;-62
2022/10/20 06:30:15;;;;;;;19.25;12.95;;;6.60;99.90;;;;;;5051703;28;20048;-62
2022/10/20 06:32:40;;;;;;;17.55;12.23;;;6.60;99.90;;;;;;5052487;28;20481;-62
2022/10/20 06:35:06;;;;;;;17.98;10.43;;;6.60;99.90;;;;;;5052567;28;20041;-62
2022/10/20 06:37:32;;;;;;;17.70;11.75;;;6.60;99.90;;;;;;5051524;28;20079;-62
2022/10/20 06:39:58;;;;;;;16.85;10.10;;;6.70;99.90;;;;;;5051947;28;20043;-62
2022/10/20 06:42:23;;;;;;;16.92;10.40;;;6.70;99.90;;;;;;5053251;28;20037;-62
2022/10/20 06:44:49;;;;;;;16.00;10.95;;;6.70;99.90;;;;;;5052725;28;20044;-62
2022/10/20 06:47:14;;;;;;;18.20;11.63;;;6.70;99.90;;;;;;5052248;28;20080;-62
2022/10/20 06:49:40;;;;;;;17.52;10.95;;;6.70;99.90;;;;;;5051809;28;20033;-62
2022/10/20 06:52:06;;;;;;;17.00;11.18;;;6.70;99.90;;;;;;5052036;28;20056;-62
2022/10/20 06:54:31;;;;;;;16.25;10.25;;;6.80;99.90;;;;;;5052173;28;20049;-62
2022/10/20 06:56:57;;;;;;;19.80;13.88;;;6.80;99.90;;;;;;5052299;28;20044;-62
2022/10/20 06:59:22;;;;;;;18.60;12.95;;;6.80;99.90;;;;;;5051798;28;20489;-62
2022/10/20 07:01:48;;;;;;;19.58;12.82;;;6.80;99.90;;;;;;5051689;28;20041;-62
2022/10/20 07:04:14;;;;;;;16.30;11.90;;;6.80;99.90;;;;;;5052202;28;20421;-62
2022/10/20 07:06:42;;;;;;;19.05;11.07;;;6.90;99.90;;;;;;5052056;28;20075;-62
2022/10/20 07:09:12;;;;;;;22.70;15.00;;;6.90;99.90;;;;;;5052741;28;20083;-62
2022/10/20 07:11:39;;;;;;;18.50;11.77;;;6.90;99.90;;;;;;5051250;28;20497;-62
2022/10/20 07:14:05;;;;;;;20.08;11.93;;;6.90;99.90;;;;;;5053072;28;20528;-62
2022/10/20 07:16:33;;;;;;;18.30;12.98;;;6.90;99.90;;;;;;5052741;28;20136;-62
2022/10/20 07:19:00;;;;;;;16.40;11.05;;;7.00;99.90;;;;;;5050680;28;20037;-62
2022/10/20 07:21:27;;;;;;;24.67;16.83;;;7.00;99.90;;;;;;5051372;28;20051;-62
2022/10/20 07:23:55;;;;;;;27.00;16.23;;;7.00;99.90;;;;;;5051318;28;20060;-62
2022/10/20 07:26:26;;;;;;;20.20;13.80;;;7.10;99.90;;;;;;5051694;28;20053;-62
2022/10/20 07:28:58;;;;;;;23.67;16.98;;;7.10;99.90;;;;;;5050158;28;20452;-62
2022/10/20 07:31:30;;;;;;;18.50;13.15;;;7.10;99.90;;;;;;5031802;28;20076;-62
2022/10/20 07:33:58;;;;;;;22.45;15.00;;;7.20;99.90;;;;;;5050355;28;20106;-62
2022/10/20 07:36:29;;;;;;;25.50;18.30;;;7.20;99.90;;;;;;5037404;28;20037;-62
2022/10/20 07:38:59;;;;;;;19.73;12.52;;;7.20;99.90;;;;;;5063519;28;20037;-62
2022/10/20 07:41:26;;;;;;;44.45;27.95;;;7.30;99.90;;;;;;5047450;28;20029;-62
2022/10/20 07:43:53;;;;;;;28.50;20.98;;;7.30;99.90;;;;;;5050824;28;20495;-62
2022/10/20 07:46:19;;;;;;;18.35;12.98;;;7.40;99.90;;;;;;5050352;28;20087;-62
2022/10/20 07:48:45;;;;;;;20.02;13.38;;;7.40;99.90;;;;;;5067065;28;20082;-62
2022/10/20 07:51:20;;;;;;;19.38;13.32;;;7.40;99.90;;;;;;5037842;28;20048;-62
2022/10/20 07:53:45;;;;;;;21.35;14.00;;;7.50;99.90;;;;;;5047286;28;20379;-62
2022/10/20 07:56:12;;;;;;;19.15;11.57;;;7.50;99.90;;;;;;5049954;28;20066;-62
2022/10/20 07:58:37;;;;;;;20.40;14.85;;;7.50;99.90;;;;;;5049120;28;20091;-62
2022/10/20 08:01:04;;;;;;;26.35;15.68;;;7.50;99.90;;;;;;5048119;28;20486;-62
2022/10/20 08:03:30;;;;;;;20.38;12.13;;;7.60;99.90;;;;;;5049165;28;20429;-62
2022/10/20 08:05:55;;;;;;;21.63;14.00;;;7.60;99.90;;;;;;5049736;28;20044;-62
2022/10/20 08:08:21;;;;;;;19.75;13.95;;;7.70;99.90;;;;;;5046850;28;20068;-62
2022/10/20 08:10:47;;;;;;;18.45;13.60;;;7.80;99.90;;;;;;5044553;28;20351;-62
2022/10/20 08:13:12;;;;;;;20.13;14.02;;;7.80;99.90;;;;;;5078340;28;20044;-62
2022/10/20 08:15:38;;;;;;;33.47;20.88;;;7.80;99.90;;;;;;5047346;28;20044;-62
2022/10/20 08:18:04;;;;;;;38.05;21.50;;;7.90;99.90;;;;;;5048083;28;20052;-62
2022/10/20 08:20:31;;;;;;;35.35;20.75;;;7.90;99.90;;;;;;5048054;28;20102;-62
2022/10/20 08:22:57;;;;;;;37.53;22.65;;;7.90;99.90;;;;;;5046662;28;20080;-62
2022/10/20 08:25:22;;;;;;;29.38;19.38;;;8.00;99.90;;;;;;5047244;28;20045;-62
2022/10/20 08:27:48;;;;;;;32.38;18.73;;;8.00;99.90;;;;;;5047490;28;20055;-62
2022/10/20 08:30:14;;;;;;;33.90;19.50;;;8.00;99.90;;;;;;5045635;28;20394;-62
2022/10/20 08:32:40;;;;;;;20.45;13.13;;;8.00;99.90;;;;;;5047741;28;20040;-62
2022/10/20 08:35:07;;;;;;;23.27;14.15;;;8.10;99.90;;;;;;5047269;28;20378;-62
2022/10/20 08:37:35;;;;;;;20.25;12.23;;;8.10;99.90;;;;;;5029621;28;20041;-62
2022/10/20 08:40:03;;;;;;;18.15;12.32;;;8.10;99.90;;;;;;5031416;28;20041;-62
2022/10/20 08:42:28;;;;;;;13.60;9.98;;;8.20;99.90;;;;;;5046509;28;20032;-62
2022/10/20 08:44:58;;;;;;;17.85;11.13;;;8.30;99.90;;;;;;5047803;28;20048;-62
2022/10/20 08:47:35;;;;;;;14.90;10.63;;;8.30;99.90;;;;;;5049908;28;20410;-62
2022/10/20 08:50:04;;;;;;;20.08;11.55;;;8.30;99.90;;;;;;5049447;28;20056;-62
2022/10/20 08:52:31;;;;;;;17.60;12.98;;;8.40;99.90;;;;;;5050355;28;20076;-62
2022/10/20 08:54:57;;;;;;;15.93;11.63;;;8.50;99.90;;;;;;5050957;28;20048;-62
2022/10/20 08:57:28;;;;;;;16.02;10.95;;;8.50;99.90;;;;;;5048763;28;20066;-61
2022/10/20 09:00:01;;;;;;;14.10;11.43;;;8.60;99.90;;;;;;5047277;28;20469;-61
2022/10/20 09:02:31;;;;;;;16.05;11.35;;;8.70;99.90;;;;;;5050071;28;20044;-61
2022/10/20 09:04:59;;;;;;;17.17;11.85;;;8.80;99.90;;;;;;5032816;28;20045;-61
2022/10/20 09:07:34;;;;;;;20.23;13.43;;;8.80;99.90;;;;;;5050299;28;20076;-62
2022/10/20 09:10:06;;;;;;;18.35;11.43;;;8.90;99.90;;;;;;5050789;28;20033;-61
2022/10/20 09:12:33;;;;;;;13.52;9.60;;;9.00;99.90;;;;;;5033355;28;20048;-61
2022/10/20 09:14:59;;;;;;;21.42;12.82;;;9.10;99.90;;;;;;5049734;28;20041;-61
2022/10/20 09:17:25;;;;;;;20.13;11.55;;;9.00;99.90;;;;;;5053134;28;20079;-61
2022/10/20 09:19:57;;;;;;;14.23;10.95;;;9.10;99.90;;;;;;5035914;28;20120;-61
2022/10/20 09:22:24;;;;;;;13.68;9.93;;;9.10;99.90;;;;;;5055226;28;20416;-61
2022/10/20 09:24:53;;;;;;;13.63;9.40;;;9.10;99.90;;;;;;5054037;28;20086;-61
2022/10/20 09:27:41;;;;;;;14.07;11.13;;;9.20;99.90;;;;;;5053491;28;20053;-62
2022/10/20 09:30:32;;;;;;;15.02;11.50;;;9.20;99.90;;;;;;5054688;28;20044;-64
2022/10/20 09:32:58;;;;;;;16.63;10.95;;;9.30;99.90;;;;;;5054086;28;20041;-62
2022/10/20 09:35:34;;;;;;;15.88;10.20;;;9.30;99.90;;;;;;5054090;28;20033;-62
2022/10/20 09:38:09;;;;;;;13.00;9.80;;;9.40;99.90;;;;;;5053619;28;20127;-62
2022/10/20 09:40:41;;;;;;;13.98;9.02;;;9.50;99.90;;;;;;5053653;28;20128;-62
2022/10/20 09:43:14;;;;;;;12.65;8.95;;;9.50;99.90;;;;;;5053683;28;20045;-62
2022/10/20 09:45:51;;;;;;;16.10;9.70;;;9.60;99.90;;;;;;5054020;28;20143;-62
2022/10/20 09:48:28;;;;;;;12.07;8.88;;;9.70;99.90;;;;;;5054475;28;20045;-62
2022/10/20 09:50:55;;;;;;;13.25;9.57;;;9.80;99.90;;;;;;5054676;28;20041;-62
2022/10/20 09:53:29;;;;;;;10.27;8.50;;;9.80;99.90;;;;;;5052120;28;20048;-63
2022/10/20 09:55:55;;;;;;;15.90;9.63;;;9.90;99.90;;;;;;5054151;28;20037;-62
2022/10/20 09:58:29;;;;;;;14.15;9.10;;;10.00;99.90;;;;;;5054383;28;20059;-64
2022/10/20 10:01:11;;;;;;;13.52;9.70;;;10.10;99.90;;;;;;5032347;28;20069;-64
2022/10/20 10:03:51;;;;;;;11.80;8.45;;;10.20;99.90;;;;;;5041320;28;20064;-64
2022/10/20 10:06:26;;;;;;;12.30;8.48;;;10.20;99.90;;;;;;5051290;28;20098;-64
2022/10/20 10:08:52;;;;;;;10.57;7.18;;;10.30;99.90;;;;;;5051884;28;20068;-65
2022/10/20 10:11:20;;;;;;;12.63;8.68;;;10.40;99.90;;;;;;5053611;28;20037;-76
2022/10/20 10:13:49;;;;;;;10.32;8.23;;;10.40;99.90;;;;;;5052161;28;20080;-71
2022/10/20 10:16:24;;;;;;;11.43;8.55;;;10.50;99.90;;;;;;5054037;28;20047;-74
2022/10/20 10:19:00;;;;;;;12.70;8.32;;;10.60;99.90;;;;;;5050114;28;20041;-73
2022/10/20 10:21:27;;;;;;;12.35;8.63;;;10.70;99.90;;;;;;5051317;28;20041;-73
2022/10/20 10:23:59;;;;;;;15.02;8.80;;;10.80;99.90;;;;;;5052050;28;20079;-73
2022/10/20 10:26:36;;;;;;;11.48;8.75;;;10.80;99.90;;;;;;5051770;28;20057;-73
2022/10/20 10:29:02;;;;;;;17.02;11.82;;;10.90;99.90;;;;;;5050869;28;20045;-73
2022/10/20 10:31:30;;;;;;;11.45;8.63;;;11.00;99.90;;;;;;5052444;28;20120;-73
2022/10/20 10:34:11;;;;;;;15.90;8.88;;;11.10;99.90;;;;;;5051993;28;20046;-72
2022/10/20 10:36:37;;;;;;;11.25;8.10;;;11.20;99.90;;;;;;5053098;28;20045;-73
2022/10/20 10:39:11;;;;;;;11.95;8.25;;;11.30;99.90;;;;;;5046546;28;20025;-73
2022/10/20 10:42:02;;;;;;;12.10;7.60;;;11.40;99.90;;;;;;5031362;28;20041;-73
2022/10/20 10:44:46;;;;;;;13.68;8.95;;;11.40;99.90;;;;;;5051016;28;20041;-73
2022/10/20 10:47:26;;;;;;;12.25;7.50;;;11.50;99.90;;;;;;5049661;28;20040;-73
2022/10/20 10:50:14;;;;;;;10.73;7.65;;;11.50;99.90;;;;;;5049859;28;20045;-73
2022/10/20 10:53:01;;;;;;;13.02;7.80;;;11.60;99.90;;;;;;5049588;28;20049;-73
2022/10/20 10:55:48;;;;;;;11.73;7.75;;;11.60;99.90;;;;;;5044471;28;20048;-73
2022/10/20 10:58:39;;;;;;;12.10;7.13;;;11.70;99.90;;;;;;5031536;28;20480;-73
2022/10/20 11:01:14;;;;;;;12.73;7.95;;;11.80;99.90;;;;;;5050082;28;20053;-70
2022/10/20 11:03:54;;;;;;;11.35;7.53;;;11.80;99.90;;;;;;5067766;28;20167;-71
2022/10/20 11:06:43;;;;;;;12.88;8.50;;;11.80;99.90;;;;;;5084712;28;20051;-70
2022/10/20 11:09:34;;;;;;;11.40;8.20;;;11.90;99.90;;;;;;5053188;28;20078;-71
2022/10/20 11:12:25;;;;;;;12.38;8.98;;;11.90;99.90;;;;;;5084445;28;20083;-72
2022/10/20 11:15:21;;;;;;;10.82;8.52;;;12.00;99.90;;;;;;5051195;28;20059;-76
2022/10/20 11:17:54;;;;;;;13.65;7.53;;;12.10;99.90;;;;;;5049962;28;20108;-76
2022/10/20 11:20:30;;;;;;;15.70;10.73;;;12.20;99.90;;;;;;5046960;28;20048;-74
2022/10/20 11:23:33;;;;;;;16.63;8.40;;;12.20;99.90;;;;;;5051942;28;20098;-71
2022/10/20 11:26:27;;;;;;;11.68;9.07;;;12.30;99.90;;;;;;5050914;28;20051;-74
2022/10/20 11:28:55;;;;;;;12.65;8.98;;;12.40;99.90;;;;;;5051455;28;20053;-73
2022/10/20 11:31:32;;;;;;;13.07;7.90;;;12.40;99.90;;;;;;5050521;28;20049;-73
2022/10/20 11:34:26;;;;;;;11.23;6.70;;;12.40;99.90;;;;;;5084465;28;20045;-74
2022/10/20 11:37:20;;;;;;;10.63;8.05;;;12.50;99.90;;;;;;5052738;28;20037;-74
2022/10/20 11:40:08;;;;;;;14.88;8.38;;;12.50;99.90;;;;;;5049715;28;20045;-74
2022/10/20 11:43:12;;;;;;;10.95;8.20;;;12.60;99.90;;;;;;5030993;28;20502;-74
2022/10/20 11:45:48;;;;;;;12.15;9.27;;;12.60;99.90;;;;;;5030578;28;20052;-73
2022/10/20 11:48:21;;;;;;;13.20;9.93;;;12.60;99.90;;;;;;5047189;28;20032;-73
2022/10/20 11:50:55;;;;;;;10.65;8.48;;;12.60;99.90;;;;;;5051393;28;20504;-73
2022/10/20 11:53:30;;;;;;;18.38;9.13;;;12.60;99.90;;;;;;5050221;28;20049;-73
2022/10/20 11:56:21;;;;;;;15.00;9.07;;;12.60;99.90;;;;;;5030990;28;20057;-74
2022/10/20 11:59:15;;;;;;;11.60;8.93;;;12.60;99.90;;;;;;5030878;28;20049;-74
2022/10/20 12:02:18;;;;;;;10.52;7.63;;;12.60;99.90;;;;;;5031164;28;20402;-74
2022/10/20 12:05:05;;;;;;;12.02;7.65;;;12.60;99.90;;;;;;5032601;28;20478;-74
2022/10/20 12:07:55;;;;;;;12.93;8.93;;;12.60;99.90;;;;;;5045363;28;20049;-74
2022/10/20 12:10:35;;;;;;;12.40;8.65;;;12.60;99.90;;;;;;5034214;28;20481;-73
2022/10/20 12:13:17;;;;;;;11.80;8.27;;;12.60;99.90;;;;;;5051927;28;20393;-73
2022/10/20 12:15:48;;;;;;;13.77;9.20;;;12.60;99.90;;;;;;5068049;28;20041;-74
2022/10/20 12:18:22;;;;;;;11.20;8.63;;;12.60;99.90;;;;;;5050506;28;20052;-73
2022/10/20 12:20:52;;;;;;;14.45;8.40;;;12.50;99.90;;;;;;5050027;28;20129;-72
2022/10/20 12:23:42;;;;;;;12.32;8.07;;;12.50;99.90;;;;;;5067243;28;20045;-72
2022/10/20 12:26:33;;;;;;;15.70;9.50;;;12.40;99.90;;;;;;5050455;28;20053;-72
2022/10/20 12:29:02;;;;;;;12.45;8.93;;;12.40;99.90;;;;;;5049579;28;20045;-72
2022/10/20 12:32:04;;;;;;;16.05;9.10;;;12.30;99.90;;;;;;5051721;28;20152;-73
2022/10/20 12:34:39;;;;;;;15.77;9.38;;;12.30;99.90;;;;;;5049836;28;20103;-73
2022/10/20 12:37:24;;;;;;;15.88;10.48;;;12.30;99.90;;;;;;5050833;28;20501;-73
2022/10/20 12:39:54;;;;;;;11.50;8.73;;;12.20;99.90;;;;;;5050512;28;20470;-73
2022/10/20 12:42:29;;;;;;;13.93;9.68;;;12.20;99.90;;;;;;5050860;28;20120;-73
2022/10/20 12:45:22;;;;;;;14.52;9.82;;;12.20;99.90;;;;;;5050557;28;20481;-73
2022/10/20 12:47:58;;;;;;;14.88;10.15;;;12.10;99.90;;;;;;5050523;28;20044;-72
2022/10/20 12:50:38;;;;;;;14.25;9.85;;;12.10;99.90;;;;;;5050979;28;20056;-73
2022/10/20 12:53:16;;;;;;;13.55;10.27;;;12.00;99.90;;;;;;5087483;28;20037;-73
2022/10/20 12:55:45;;;;;;;12.88;9.90;;;12.00;99.90;;;;;;5055071;28;20497;-73
2022/10/20 12:58:16;;;;;;;12.80;10.07;;;12.00;99.90;;;;;;5054374;28;20037;-73